Queen Isabella — A8IE2 — position and weather

sailwx.info

Track history (hours):
 
Tides and Currents Weather Stations Pressure Air Temp Water Temp Dewpoint Dewpoint Depression Visibility Wind Speed Wind Dir Waves Ship Positions

Queen Isabella

Last reported at 2017-Jun-26 14:06 UTC. Time now 2017-Jun-26 18:56 UTC.
Position N 39°39' W 000°13'.

Length 131 m; draft 7.8 m.

Type: Tanker. MMSI: 636090959.

Date/timePositionNaut miles runAvg speedWind from/ knotsBaromVisibWave heightAir tempDewpointWater temp
2017-Jun-26 14:06N 39°39' W 000°13'7211.1
2017-Jun-26 07:37N 39°21' E 001°17'112.7
2017-Jun-26 07:30N 39°21' E 001°19'712.5
2017-Jun-26 06:55N 39°18' E 001°28'612.2
2017-Jun-26 06:24N 39°17' E 001°36'512.1
2017-Jun-26 06:00N 39°15' E 001°42'611.9
2017-Jun-26 05:30N 39°13' E 001°50'611.8
2017-Jun-26 05:00N 39°12' E 001°57'611.7
2017-Jun-26 04:30N 39°10' E 002°04'611.7
2017-Jun-26 04:00N 39°08' E 002°11'611.7
2017-Jun-26 03:30N 39°06' E 002°18'611.9
2017-Jun-26 03:00N 39°04' E 002°26'612.3
2017-Jun-26 02:30N 39°02' E 002°33'612.5
2017-Jun-26 02:00N 38°59' E 002°40'612.5
2017-Jun-26 01:30N 38°56' E 002°47'712.7
2017-Jun-26 00:59N 38°54' E 002°55'612.6
2017-Jun-26 00:30N 38°51' E 003°02'612.4
2017-Jun-26 00:00N 38°48' E 003°09'612.2
2017-Jun-25 23:30N 38°46' E 003°16'612.3
2017-Jun-25 23:00N 38°43' E 003°23'612.6
2017-Jun-25 22:30N 38°40' E 003°31'712.7
2017-Jun-25 21:58N 38°37' E 003°38'612.8
2017-Jun-25 21:30N 38°35' E 003°45'612.8
2017-Jun-25 21:00N 38°32' E 003°52'712.8
2017-Jun-25 20:30N 38°29' E 004°00'712.8
2017-Jun-25 19:57N 38°26' E 004°08'612.7
2017-Jun-25 19:29N 38°24' E 004°15'5412.7
2017-Jun-25 15:13N 37°60' E 005°17'312.3
2017-Jun-25 14:59N 37°58' E 005°20'2212.1
2017-Jun-25 13:10N 37°49' E 005°45'212.0
2017-Jun-25 13:00N 37°48' E 005°48'711.9
2017-Jun-25 12:26N 37°45' E 005°55'612.0
2017-Jun-25 11:56N 37°43' E 006°02'512.2
2017-Jun-25 11:29N 37°40' E 006°08'  
2017-Jun-21 06:10N 38°07' E 004°55'210.3
2017-Jun-21 06:00N 38°08' E 004°52'510.2
2017-Jun-21 05:30N 38°10' E 004°47'510.2
2017-Jun-21 05:00N 38°13' E 004°41'510.3
2017-Jun-21 04:30N 38°15' E 004°35'1110.4
2017-Jun-21 03:27N 38°19' E 004°22'510.5
2017-Jun-21 03:00N 38°22' E 004°17'510.5
2017-Jun-21 02:30N 38°24' E 004°11'510.6
2017-Jun-21 02:00N 38°26' E 004°05'510.5
2017-Jun-21 01:30N 38°29' E 003°59'510.6
2017-Jun-21 01:00N 38°31' E 003°53'510.7
2017-Jun-21 00:30N 38°33' E 003°47'510.8
2017-Jun-21 00:00N 38°35' E 003°40'510.9
2017-Jun-20 23:30N 38°38' E 003°34'510.9
2017-Jun-20 23:00N 38°40' E 003°28'510.9
2017-Jun-20 22:30N 38°43' E 003°22'510.9
2017-Jun-20 22:00N 38°45' E 003°15'510.8
2017-Jun-20 21:30N 38°47' E 003°09'510.9
2017-Jun-20 21:00N 38°50' E 003°03'510.9
2017-Jun-20 20:30N 38°52' E 002°57'510.8
2017-Jun-20 20:00N 38°55' E 002°50'510.7
2017-Jun-20 19:30N 38°57' E 002°44'510.7
2017-Jun-20 19:00N 38°59' E 002°38'510.8
2017-Jun-20 18:30N 39°01' E 002°31'511.0
2017-Jun-20 18:00N 39°03' E 002°25'611.0
2017-Jun-20 17:30N 39°06' E 002°19'611.7
2017-Jun-20 17:00N 39°08' E 002°11'611.9
2017-Jun-20 16:30N 39°09' E 002°04'611.7
2017-Jun-20 16:00N 39°11' E 001°57'611.8
2017-Jun-20 15:30N 39°12' E 001°49'611.7
2017-Jun-20 14:59N 39°14' E 001°42'611.6
2017-Jun-20 14:29N 39°16' E 001°35'1111.3
2017-Jun-20 13:30N 39°19' E 001°21'610.7
2017-Jun-20 12:56N 39°20' E 001°13'69 1.6
2017-Jun-18 18:14N 39°39' W 000°13'8011.4
2017-Jun-18 11:13N 39°25' E 001°29'313.4
2017-Jun-18 11:00N 39°24' E 001°33'713.3
2017-Jun-18 10:28N 39°21' E 001°41'613.3
2017-Jun-18 10:00N 39°18' E 001°48'613.2
2017-Jun-18 09:31N 39°15' E 001°56'612.9
2017-Jun-18 09:01N 39°13' E 002°03'612.8
2017-Jun-18 08:30N 39°10' E 002°11'713.0
2017-Jun-18 08:00N 39°07' E 002°18'713.3
2017-Jun-18 07:30N 39°04' E 002°26'713.2
2017-Jun-18 07:00N 39°01' E 002°34'713.2
2017-Jun-18 06:30N 38°59' E 002°41'713.1
2017-Jun-18 06:00N 38°56' E 002°49'713.1
2017-Jun-18 05:31N 38°53' E 002°56'613.0
2017-Jun-18 05:01N 38°50' E 003°04'712.9
2017-Jun-18 04:30N 38°47' E 003°12'613.1
2017-Jun-18 04:00N 38°44' E 003°19'713.2
2017-Jun-18 03:30N 38°41' E 003°27'713.2
2017-Jun-18 03:01N 38°39' E 003°34'713.2
2017-Jun-18 02:30N 38°36' E 003°42'713.1
2017-Jun-18 02:00N 38°33' E 003°49'613.0
2017-Jun-18 01:30N 38°30' E 003°57'713.0
2017-Jun-18 00:57N 38°27' E 004°05'612.9
2017-Jun-18 00:31N 38°25' E 004°12'1913.0
2017-Jun-17 23:03N 38°16' E 004°34'013.0
2017-Jun-17 23:00N 38°16' E 004°34'  
Track history (hours):
 
Tides and Currents Weather Stations Pressure Air Temp Water Temp Dewpoint Dewpoint Depression Visibility Wind Speed Wind Dir Waves Ship Positions

Queen Isabella

Last reported at 2017-Jun-26 14:06 UTC. Time now 2017-Jun-26 18:56 UTC.
Position N 39°39' W 000°13'.

Length 131 m; draft 7.8 m.

Type: Tanker. MMSI: 636090959.

Date/timePositionNaut miles runAvg speedWind from/ knotsBaromVisibWave heightAir tempDewpointWater temp
2017-Jun-26 14:06N 39°39' W 000°13'7211.1
2017-Jun-26 07:37N 39°21' E 001°17'112.7
2017-Jun-26 07:30N 39°21' E 001°19'712.5
2017-Jun-26 06:55N 39°18' E 001°28'612.2
2017-Jun-26 06:24N 39°17' E 001°36'512.1
2017-Jun-26 06:00N 39°15' E 001°42'611.9
2017-Jun-26 05:30N 39°13' E 001°50'611.8
2017-Jun-26 05:00N 39°12' E 001°57'611.7
2017-Jun-26 04:30N 39°10' E 002°04'611.7
2017-Jun-26 04:00N 39°08' E 002°11'611.7
2017-Jun-26 03:30N 39°06' E 002°18'611.9
2017-Jun-26 03:00N 39°04' E 002°26'612.3
2017-Jun-26 02:30N 39°02' E 002°33'612.5
2017-Jun-26 02:00N 38°59' E 002°40'612.5
2017-Jun-26 01:30N 38°56' E 002°47'712.7
2017-Jun-26 00:59N 38°54' E 002°55'612.6
2017-Jun-26 00:30N 38°51' E 003°02'612.4
2017-Jun-26 00:00N 38°48' E 003°09'612.2
2017-Jun-25 23:30N 38°46' E 003°16'612.3
2017-Jun-25 23:00N 38°43' E 003°23'612.6
2017-Jun-25 22:30N 38°40' E 003°31'712.7
2017-Jun-25 21:58N 38°37' E 003°38'612.8
2017-Jun-25 21:30N 38°35' E 003°45'612.8
2017-Jun-25 21:00N 38°32' E 003°52'712.8
2017-Jun-25 20:30N 38°29' E 004°00'712.8
2017-Jun-25 19:57N 38°26' E 004°08'612.7
2017-Jun-25 19:29N 38°24' E 004°15'5412.7
2017-Jun-25 15:13N 37°60' E 005°17'312.3
2017-Jun-25 14:59N 37°58' E 005°20'2212.1
2017-Jun-25 13:10N 37°49' E 005°45'212.0
2017-Jun-25 13:00N 37°48' E 005°48'711.9
2017-Jun-25 12:26N 37°45' E 005°55'612.0
2017-Jun-25 11:56N 37°43' E 006°02'512.2
2017-Jun-25 11:29N 37°40' E 006°08'  
2017-Jun-21 06:10N 38°07' E 004°55'210.3
2017-Jun-21 06:00N 38°08' E 004°52'510.2
2017-Jun-21 05:30N 38°10' E 004°47'510.2
2017-Jun-21 05:00N 38°13' E 004°41'510.3
2017-Jun-21 04:30N 38°15' E 004°35'1110.4
2017-Jun-21 03:27N 38°19' E 004°22'510.5
2017-Jun-21 03:00N 38°22' E 004°17'510.5
2017-Jun-21 02:30N 38°24' E 004°11'510.6
2017-Jun-21 02:00N 38°26' E 004°05'510.5
2017-Jun-21 01:30N 38°29' E 003°59'510.6
2017-Jun-21 01:00N 38°31' E 003°53'510.7
2017-Jun-21 00:30N 38°33' E 003°47'510.8
2017-Jun-21 00:00N 38°35' E 003°40'510.9
2017-Jun-20 23:30N 38°38' E 003°34'510.9
2017-Jun-20 23:00N 38°40' E 003°28'510.9
2017-Jun-20 22:30N 38°43' E 003°22'510.9
2017-Jun-20 22:00N 38°45' E 003°15'510.8
2017-Jun-20 21:30N 38°47' E 003°09'510.9
2017-Jun-20 21:00N 38°50' E 003°03'510.9
2017-Jun-20 20:30N 38°52' E 002°57'510.8
2017-Jun-20 20:00N 38°55' E 002°50'510.7
2017-Jun-20 19:30N 38°57' E 002°44'510.7
2017-Jun-20 19:00N 38°59' E 002°38'510.8
2017-Jun-20 18:30N 39°01' E 002°31'511.0
2017-Jun-20 18:00N 39°03' E 002°25'611.0
2017-Jun-20 17:30N 39°06' E 002°19'611.7
2017-Jun-20 17:00N 39°08' E 002°11'611.9
2017-Jun-20 16:30N 39°09' E 002°04'611.7
2017-Jun-20 16:00N 39°11' E 001°57'611.8
2017-Jun-20 15:30N 39°12' E 001°49'611.7
2017-Jun-20 14:59N 39°14' E 001°42'611.6
2017-Jun-20 14:29N 39°16' E 001°35'1111.3
2017-Jun-20 13:30N 39°19' E 001°21'610.7
2017-Jun-20 12:56N 39°20' E 001°13'69 1.6
2017-Jun-18 18:14N 39°39' W 000°13'8011.4
2017-Jun-18 11:13N 39°25' E 001°29'313.4
2017-Jun-18 11:00N 39°24' E 001°33'713.3
2017-Jun-18 10:28N 39°21' E 001°41'613.3
2017-Jun-18 10:00N 39°18' E 001°48'613.2
2017-Jun-18 09:31N 39°15' E 001°56'612.9
2017-Jun-18 09:01N 39°13' E 002°03'612.8
2017-Jun-18 08:30N 39°10' E 002°11'713.0
2017-Jun-18 08:00N 39°07' E 002°18'713.3
2017-Jun-18 07:30N 39°04' E 002°26'713.2
2017-Jun-18 07:00N 39°01' E 002°34'713.2
2017-Jun-18 06:30N 38°59' E 002°41'713.1
2017-Jun-18 06:00N 38°56' E 002°49'713.1
2017-Jun-18 05:31N 38°53' E 002°56'613.0
2017-Jun-18 05:01N 38°50' E 003°04'712.9
2017-Jun-18 04:30N 38°47' E 003°12'613.1
2017-Jun-18 04:00N 38°44' E 003°19'713.2
2017-Jun-18 03:30N 38°41' E 003°27'713.2
2017-Jun-18 03:01N 38°39' E 003°34'713.2
2017-Jun-18 02:30N 38°36' E 003°42'713.1
2017-Jun-18 02:00N 38°33' E 003°49'613.0
2017-Jun-18 01:30N 38°30' E 003°57'713.0
2017-Jun-18 00:57N 38°27' E 004°05'612.9
2017-Jun-18 00:31N 38°25' E 004°12'1913.0
2017-Jun-17 23:03N 38°16' E 004°34'013.0
2017-Jun-17 23:00N 38°16' E 004°34'  

Dump ship's entire track history